Time;durP1;ratioP1;P1;durP2;ratioP2;P2;SDS_P1;SDS_P2;PMS_P1;PMS_P2;Temp;Humidity;BMP_temperature;BMP_pressure;BME280_temperature;BME280_humidity;BME280_pressure;Samples;Min_cycle;Max_cycle;Signal;HPM_P1;HPM_P2
2023/07/02 00:00:27;;;;;;;;;25.75;21.50;;;;;22.70;46.08;100682.78;2063254;28;46241;-57
2023/07/02 00:01:28;;;;;;;;;35.00;28.00;;;;;22.67;46.24;100679.44;2063529;28;46580;-58
2023/07/02 00:02:28;;;;;;;;;32.00;29.75;;;;;22.67;46.21;100679.44;2050748;28;45429;-58
2023/07/02 00:03:29;;;;;;;;;29.50;27.75;;;;;22.66;46.21;100675.88;2054204;28;46890;-58
2023/07/02 00:04:29;;;;;;;;;28.00;22.25;;;;;22.66;46.49;100680.44;2070135;28;46427;-58
2023/07/02 00:05:30;;;;;;;;;23.00;21.50;;;;;22.65;46.30;100689.53;2071710;28;46452;-57
2023/07/02 00:06:32;;;;;;;;;31.20;28.80;;;;;22.63;46.64;100684.22;2071743;28;46735;-59
2023/07/02 00:07:34;;;;;;;;;34.60;29.80;;;;;22.62;46.32;100679.78;2071509;28;46366;-58
2023/07/02 00:08:34;;;;;;;;;32.00;27.60;;;;;22.61;46.17;100684.34;2063726;28;46990;-57
2023/07/02 00:09:35;;;;;;;;;28.75;25.25;;;;;22.59;46.36;100683.56;2072079;28;46758;-58
2023/07/02 00:10:35;;;;;;;;;28.75;26.75;;;;;22.58;46.38;100687.25;2069292;28;46706;-58
2023/07/02 00:11:36;;;;;;;;;27.50;25.50;;;;;22.58;46.66;100683.69;2054759;28;46642;-58
2023/07/02 00:12:37;;;;;;;;;33.60;29.20;;;;;22.57;46.57;100681.94;2052992;28;46607;-58
2023/07/02 00:13:38;;;;;;;;;38.25;34.00;;;;;22.55;46.71;100684.78;2063977;28;45827;-59
2023/07/02 00:14:39;;;;;;;;;35.80;30.60;;;;;22.55;46.91;100689.31;2063194;28;47400;-59
2023/07/02 00:15:39;;;;;;;;;22.25;21.50;;;;;22.53;46.42;100675.91;2063703;28;46632;-59
2023/07/02 00:16:44;;;;;;;;;34.50;29.25;;;;;22.54;46.44;100679.47;2062979;28;46303;-58
2023/07/02 00:17:44;;;;;;;;;31.00;29.40;;;;;22.52;46.67;100693.09;2063065;28;46537;-58
2023/07/02 00:18:45;;;;;;;;;34.50;29.25;;;;;22.50;46.64;100681.53;2063485;28;46177;-58
2023/07/02 00:19:46;;;;;;;;;34.00;29.80;;;;;22.50;47.05;100680.69;2063339;28;46739;-57
2023/07/02 00:20:46;;;;;;;;;31.50;28.25;;;;;22.49;46.86;100681.66;2071276;28;46552;-57
2023/07/02 00:21:47;;;;;;;;;32.75;30.25;;;;;22.46;46.75;100674.59;2071326;28;46350;-56
2023/07/02 00:22:49;;;;;;;;;28.00;24.60;;;;;22.44;47.04;100681.97;2072650;28;45664;-58
2023/07/02 00:23:49;;;;;;;;;37.60;32.00;;;;;22.43;46.79;100676.66;2071254;28;46578;-58
2023/07/02 00:24:51;;;;;;;;;32.00;29.50;;;;;22.41;46.89;100671.38;2071835;28;46637;-58
2023/07/02 00:25:51;;;;;;;;;31.20;28.60;;;;;22.38;46.64;100677.00;2071853;28;45836;-59
2023/07/02 00:26:51;;;;;;;;;33.00;29.75;;;;;22.37;47.03;100671.72;2071458;28;46197;-59
2023/07/02 00:27:52;;;;;;;;;31.00;29.75;;;;;22.35;47.28;100677.22;2071473;28;46647;-57
2023/07/02 00:28:56;;;;;;;;;37.00;31.00;;;;;22.33;47.01;100680.03;2071634;28;46703;-58
2023/07/02 00:29:56;;;;;;;;;30.60;28.80;;;;;22.32;46.84;100681.00;2067057;28;46629;-58
2023/07/02 00:30:56;;;;;;;;;33.50;28.00;;;;;22.32;47.21;100680.13;2051942;28;46201;-57
2023/07/02 00:31:57;;;;;;;;;34.50;31.25;;;;;22.31;47.04;100681.97;2053967;28;46233;-57
2023/07/02 00:32:57;;;;;;;;;26.50;24.75;;;;;22.31;47.10;100675.72;2064802;28;47057;-58
2023/07/02 00:33:57;;;;;;;;;31.00;28.25;;;;;22.29;47.47;100683.06;2071677;28;46458;-58
2023/07/02 00:34:58;;;;;;;;;32.00;28.00;;;;;22.28;47.31;100675.94;2070853;28;46466;-57
2023/07/02 00:36:00;;;;;;;;;29.00;28.40;;;;;22.28;47.58;100681.34;2071664;28;46882;-58
2023/07/02 00:37:00;;;;;;;;;37.80;30.40;;;;;22.26;47.33;100673.34;2067427;28;46305;-58
2023/07/02 00:38:01;;;;;;;;;33.00;28.75;;;;;22.26;47.10;100677.88;2064343;28;46575;-57
2023/07/02 00:39:01;;;;;;;;;26.25;22.50;;;;;22.25;47.43;100671.63;2063508;28;46238;-58
2023/07/02 00:40:02;;;;;;;;;32.25;30.00;;;;;22.25;47.39;100673.47;2063130;28;46206;-57
2023/07/02 00:41:02;;;;;;;;;27.25;23.00;;;;;22.25;47.46;100678.88;2063341;28;46333;-59
2023/07/02 00:42:03;;;;;;;;;36.75;30.25;;;;;22.24;47.41;100679.84;2046096;28;46315;-58
2023/07/02 00:43:04;;;;;;;;;34.80;30.40;;;;;22.24;47.67;100678.00;2046074;28;46270;-58
2023/07/02 00:44:04;;;;;;;;;32.00;29.75;;;;;22.23;47.94;100672.66;2062249;28;46341;-57
2023/07/02 00:45:06;;;;;;;;;31.25;28.50;;;;;22.22;47.57;100677.22;2063199;28;46442;-57
2023/07/02 00:46:06;;;;;;;;;35.40;29.20;;;;;22.22;47.31;100676.34;2062287;28;46850;-59
2023/07/02 00:47:08;;;;;;;;;35.25;30.25;;;;;22.20;47.75;100676.47;2062238;28;46567;-58
2023/07/02 00:48:08;;;;;;;;;29.20;27.00;;;;;22.21;47.46;100680.03;2060023;28;46623;-58
2023/07/02 00:49:09;;;;;;;;;31.50;28.75;;;;;22.20;47.85;100672.91;2063594;28;46559;-58
2023/07/02 00:50:10;;;;;;;;;29.50;27.50;;;;;22.19;47.24;100672.03;2063402;28;46412;-58
2023/07/02 00:51:13;;;;;;;;;30.25;26.00;;;;;22.20;47.60;100679.16;2063362;28;46393;-58
2023/07/02 00:52:14;;;;;;;;;29.20;27.80;;;;;22.18;47.57;100678.41;2063515;28;46375;-59
2023/07/02 00:53:15;;;;;;;;;30.80;28.80;;;;;22.18;47.54;100685.66;2063057;28;46024;-56
2023/07/02 00:54:15;;;;;;;;;28.75;24.00;;;;;22.15;47.82;100675.94;2063682;28;46154;-57
2023/07/02 00:55:16;;;;;;;;;38.50;29.75;;;;;22.17;47.63;100683.94;2063625;28;46208;-57
2023/07/02 00:56:17;;;;;;;;;29.50;27.00;;;;;22.15;48.02;100678.63;2070622;28;47081;-58
2023/07/02 00:57:18;;;;;;;;;32.20;27.60;;;;;22.14;47.64;100684.16;2071236;28;46972;-58
2023/07/02 00:58:20;;;;;;;;;32.60;28.80;;;;;22.12;47.65;100678.00;2071399;28;46927;-58
2023/07/02 00:59:21;;;;;;;;;30.00;27.20;;;;;22.10;48.15;100679.91;2054744;28;46426;-59
2023/07/02 01:00:22;;;;;;;;;31.75;30.00;;;;;22.08;47.74;100671.06;2055203;28;46216;-58
2023/07/02 01:01:27;;;;;;;;;34.00;29.20;;;;;22.08;47.68;100681.88;2064341;28;46434;-58
2023/07/02 01:02:29;;;;;;;;;30.00;28.00;;;;;22.07;47.83;100672.03;2067292;28;47388;-58
2023/07/02 01:03:32;;;;;;;;;31.40;29.40;;;;;22.04;47.72;100675.78;2071927;28;45754;-58
2023/07/02 01:04:33;;;;;;;;;37.60;30.20;;;;;22.03;47.80;100671.34;2063590;28;46462;-57
2023/07/02 01:05:36;;;;;;;;;29.50;25.75;;;;;22.01;47.88;100681.41;2066331;28;46690;-58
2023/07/02 01:06:40;;;;;;;;;33.40;30.40;;;;;22.00;48.04;100674.28;2067583;28;46917;-56
2023/07/02 01:07:40;;;;;;;;;29.60;26.60;;;;;21.99;48.37;100677.97;2072010;28;46512;-57
2023/07/02 01:08:40;;;;;;;;;30.00;27.75;;;;;21.97;48.10;100677.16;2064389;28;46879;-58
2023/07/02 01:09:41;;;;;;;;;30.25;28.00;;;;;21.96;48.04;100681.72;2064805;28;46345;-57
2023/07/02 01:10:42;;;;;;;;;29.25;26.75;;;;;21.95;48.13;100687.22;2064672;28;46921;-56
2023/07/02 01:11:50;;;;;;;;;22.20;20.40;;;;;21.93;48.18;100676.53;2064785;28;46860;-58
2023/07/02 01:12:51;;;;;;;;;25.60;24.20;;;;;21.93;48.22;100689.19;2064539;28;46399;-58
2023/07/02 01:13:56;;;;;;;;;32.40;27.00;;;;;21.91;48.19;100692.00;2064662;28;46733;-58
2023/07/02 01:15:01;;;;;;;;;29.60;23.80;;;;;21.89;48.33;100677.72;2064996;28;46933;-58
2023/07/02 01:16:01;;;;;;;;;30.00;27.60;;;;;21.87;48.13;100685.06;2064692;28;46733;-58
2023/07/02 01:17:05;;;;;;;;;28.75;28.00;;;;;21.87;48.31;100684.22;2064566;28;47097;-59
2023/07/02 01:18:07;;;;;;;;;29.20;27.60;;;;;21.85;48.39;100691.53;2063654;28;46828;-58
2023/07/02 01:19:13;;;;;;;;;32.00;28.60;;;;;21.83;48.38;100698.88;2065530;28;46311;-57
2023/07/02 01:20:14;;;;;;;;;35.40;29.00;;;;;21.82;49.04;100689.91;2064821;28;46500;-58
2023/07/02 01:21:14;;;;;;;;;28.75;26.00;;;;;21.80;48.57;100680.19;2071443;28;46312;-58
2023/07/02 01:22:15;;;;;;;;;32.50;30.75;;;;;21.77;48.88;100692.09;2063022;28;46509;-57
2023/07/02 01:23:15;;;;;;;;;32.25;27.00;;;;;21.76;49.13;100690.34;2063662;28;46411;-58
2023/07/02 01:24:17;;;;;;;;;28.75;26.00;;;;;21.76;49.20;100689.50;2072602;28;46836;-58
2023/07/02 01:25:18;;;;;;;;;29.80;24.40;;;;;21.74;48.68;100692.31;2072512;28;46824;-58
2023/07/02 01:26:19;;;;;;;;;33.80;28.40;;;;;21.72;49.27;100684.31;2072743;28;46958;-59
2023/07/02 01:27:20;;;;;;;;;31.00;27.75;;;;;21.72;49.37;100694.22;2064201;28;46472;-59
2023/07/02 01:28:23;;;;;;;;;35.80;27.80;;;;;21.70;49.19;100688.91;2063217;28;46811;-59
2023/07/02 01:29:24;;;;;;;;;28.80;26.00;;;;;21.70;49.15;100696.16;2057126;28;46782;-57
2023/07/02 01:30:25;;;;;;;;;26.75;25.75;;;;;21.69;49.05;100691.72;2064713;28;46213;-58
2023/07/02 01:31:26;;;;;;;;;33.80;29.40;;;;;21.69;49.25;100694.44;2064503;28;46924;-58
2023/07/02 01:32:26;;;;;;;;;34.25;28.75;;;;;21.68;48.92;100692.69;2064505;28;46212;-58
2023/07/02 01:33:27;;;;;;;;;25.75;24.75;;;;;21.67;49.33;100701.78;2065570;28;46390;-58
2023/07/02 01:34:27;;;;;;;;;28.75;28.25;;;;;21.65;49.00;100693.78;2072824;28;46092;-59
2023/07/02 01:35:27;;;;;;;;;30.00;27.25;;;;;21.66;49.27;100695.50;2072648;28;46243;-57
2023/07/02 01:36:27;;;;;;;;;27.75;25.25;;;;;21.65;49.66;100698.31;2072857;28;46554;-59
2023/07/02 01:37:28;;;;;;;;;33.25;28.50;;;;;21.64;49.46;100693.88;2065865;28;46280;-59
2023/07/02 01:38:28;;;;;;;;;29.50;28.50;;;;;21.64;49.41;100693.88;2064357;28;46235;-59
2023/07/02 01:39:29;;;;;;;;;37.00;29.25;;;;;21.64;49.46;100694.75;2064815;28;46643;-59
2023/07/02 01:40:29;;;;;;;;;29.25;29.00;;;;;21.63;49.83;100697.56;2064213;28;46512;-59
2023/07/02 01:41:29;;;;;;;;;35.75;29.25;;;;;21.64;49.80;100696.59;2064367;28;46451;-58
2023/07/02 01:42:29;;;;;;;;;32.00;29.50;;;;;21.62;49.15;100699.41;2064388;28;46168;-58
2023/07/02 01:43:30;;;;;;;;;30.00;26.25;;;;;21.61;49.21;100696.81;2064550;28;46661;-59
2023/07/02 01:44:30;;;;;;;;;32.75;29.50;;;;;21.60;49.61;100701.34;2065342;28;45536;-58
2023/07/02 01:45:30;;;;;;;;;32.00;28.75;;;;;21.59;49.32;100696.88;2064932;28;46848;-58
2023/07/02 01:46:31;;;;;;;;;25.25;25.25;;;;;21.59;49.97;100699.59;2064211;28;46563;-59
2023/07/02 01:47:31;;;;;;;;;31.00;27.75;;;;;21.58;49.55;100695.16;2064636;28;46841;-57
2023/07/02 01:48:31;;;;;;;;;29.50;24.25;;;;;21.58;49.45;100697.00;2064360;28;46299;-59
2023/07/02 01:49:32;;;;;;;;;25.50;21.75;;;;;21.58;49.70;100694.28;2064691;28;46351;-58
2023/07/02 01:50:32;;;;;;;;;33.25;27.75;;;;;21.57;49.94;100696.13;2064625;28;46221;-59
2023/07/02 01:51:34;;;;;;;;;26.50;25.00;;;;;21.56;50.02;100697.09;2064464;28;46519;-59
2023/07/02 01:52:34;;;;;;;;;31.80;27.80;;;;;21.55;50.09;100697.22;2064371;28;46734;-58
2023/07/02 01:53:34;;;;;;;;;31.75;27.75;;;;;21.55;49.70;100699.91;2045547;28;46808;-58
2023/07/02 01:54:36;;;;;;;;;32.25;27.00;;;;;21.54;49.86;100696.34;2047426;28;46606;-57
2023/07/02 01:55:37;;;;;;;;;24.20;23.40;;;;;21.54;50.06;100696.34;2063573;28;46694;-57
2023/07/02 01:56:37;;;;;;;;;31.00;28.00;;;;;21.55;49.97;100697.22;2064529;28;46782;-58
2023/07/02 01:57:38;;;;;;;;;35.75;30.00;;;;;21.54;49.52;100699.03;2064352;28;46680;-57
2023/07/02 01:58:38;;;;;;;;;30.25;28.00;;;;;21.53;50.18;100702.72;2064281;28;46443;-59
2023/07/02 01:59:38;;;;;;;;;24.00;23.50;;;;;21.52;49.75;100697.41;2040386;28;46165;-58
2023/07/02 02:00:39;;;;;;;;;27.50;26.00;;;;;21.50;50.14;100696.66;2047035;28;47078;-57
2023/07/02 02:01:42;;;;;;;;;33.00;28.50;;;;;21.49;49.67;100700.34;2067914;28;47120;-58
2023/07/02 02:02:43;;;;;;;;;29.00;28.00;;;;;21.49;49.85;100697.63;2063908;28;46910;-58
2023/07/02 02:03:43;;;;;;;;;29.75;25.75;;;;;21.48;50.20;100702.16;2055745;28;46287;-59
2023/07/02 02:04:44;;;;;;;;;33.25;29.50;;;;;21.47;50.15;100705.84;2062092;28;46371;-59
2023/07/02 02:05:44;;;;;;;;;28.50;28.00;;;;;21.43;50.28;100694.34;2071857;28;46139;-58
2023/07/02 02:06:44;;;;;;;;;32.75;30.25;;;;;21.44;49.95;100697.94;2072126;28;46479;-58
2023/07/02 02:07:45;;;;;;;;;29.50;23.25;;;;;21.43;50.39;100693.50;2065935;28;46330;-58
2023/07/02 02:08:45;;;;;;;;;33.25;27.50;;;;;21.41;50.69;100693.59;2072837;28;45207;-58
2023/07/02 02:09:45;;;;;;;;;26.75;25.25;;;;;21.41;50.71;100700.84;2072025;28;46303;-56
2023/07/02 02:10:46;;;;;;;;;28.00;27.00;;;;;21.40;50.40;100694.56;2064257;28;45948;-58
2023/07/02 02:11:49;;;;;;;;;31.25;26.00;;;;;21.40;50.22;100693.72;2063675;28;45767;-56
2023/07/02 02:12:50;;;;;;;;;33.40;29.60;;;;;21.40;50.77;100699.97;2067167;28;46981;-57
2023/07/02 02:13:51;;;;;;;;;31.50;28.75;;;;;21.39;50.46;100692.84;2072185;28;46202;-56
2023/07/02 02:14:51;;;;;;;;;37.50;29.00;;;;;21.37;50.95;100692.09;2072473;28;46539;-59
2023/07/02 02:15:51;;;;;;;;;30.75;26.75;;;;;21.36;50.67;100693.06;2072460;28;46498;-58
2023/07/02 02:16:52;;;;;;;;;33.75;29.75;;;;;21.35;50.81;100691.31;2072750;28;45367;-58
2023/07/02 02:17:52;;;;;;;;;29.25;26.25;;;;;21.33;50.82;100701.34;2072381;28;46160;-58
2023/07/02 02:18:53;;;;;;;;;27.25;27.00;;;;;21.33;50.71;100685.13;2069923;28;46388;-55
2023/07/02 02:19:53;;;;;;;;;24.00;22.60;;;;;21.32;50.79;100694.22;2071482;28;46631;-58
2023/07/02 02:20:54;;;;;;;;;29.00;22.25;;;;;21.31;50.75;100694.31;2073042;28;46181;-58
2023/07/02 02:21:54;;;;;;;;;34.25;30.00;;;;;21.30;50.96;100690.75;2063831;28;46850;-59
2023/07/02 02:22:54;;;;;;;;;29.50;26.50;;;;;21.31;50.75;100689.78;2063790;28;46237;-58
2023/07/02 02:23:55;;;;;;;;;29.50;24.75;;;;;21.30;51.08;100693.44;2073185;28;46777;-59
2023/07/02 02:24:55;;;;;;;;;29.50;24.00;;;;;21.30;50.64;100697.97;2064003;28;46561;-58
2023/07/02 02:25:55;;;;;;;;;27.50;24.75;;;;;21.30;50.91;100696.16;2059788;28;46104;-58
2023/07/02 02:26:56;;;;;;;;;26.50;24.75;;;;;21.32;50.69;100701.44;2056299;28;46271;-59
2023/07/02 02:27:56;;;;;;;;;28.50;25.25;;;;;21.31;50.69;100694.31;2062896;28;46591;-56
2023/07/02 02:28:57;;;;;;;;;27.50;25.25;;;;;21.30;50.65;100703.38;2064156;28;46400;-58
2023/07/02 02:29:57;;;;;;;;;27.00;25.25;;;;;21.30;51.10;100703.38;2068048;28;46327;-58
2023/07/02 02:30:57;;;;;;;;;25.50;21.25;;;;;21.29;50.91;100696.25;2072291;28;46360;-57
2023/07/02 02:31:58;;;;;;;;;29.50;23.75;;;;;21.28;51.51;100700.78;2067192;28;46142;-59
2023/07/02 02:32:58;;;;;;;;;28.00;24.50;;;;;21.27;51.07;100696.38;2065823;28;46496;-59
2023/07/02 02:33:58;;;;;;;;;20.00;20.00;;;;;21.27;50.93;100699.06;2067643;28;46913;-57
2023/07/02 02:34:59;;;;;;;;;28.00;25.75;;;;;21.28;51.11;100697.22;2063348;28;46609;-58
2023/07/02 02:35:59;;;;;;;;;22.75;19.50;;;;;21.28;51.54;100697.22;2063902;28;46190;-58
2023/07/02 02:37:00;;;;;;;;;27.75;25.25;;;;;21.28;51.18;100699.94;2064081;28;46362;-57
2023/07/02 02:38:03;;;;;;;;;26.20;21.20;;;;;21.27;51.15;100698.19;2064251;28;46500;-58
2023/07/02 02:39:04;;;;;;;;;26.60;25.20;;;;;21.27;51.10;100699.06;2063833;28;46725;-58
2023/07/02 02:40:08;;;;;;;;;29.40;23.60;;;;;21.27;51.16;100693.66;2064753;28;45641;-58
2023/07/02 02:41:09;;;;;;;;;26.00;22.20;;;;;21.25;51.23;100698.31;2065806;28;46523;-57
2023/07/02 02:42:10;;;;;;;;;28.75;27.50;;;;;21.23;51.60;100702.03;2071721;28;46969;-58
2023/07/02 02:43:11;;;;;;;;;27.60;25.20;;;;;21.22;51.71;100700.31;2057922;28;46414;-58
2023/07/02 02:44:11;;;;;;;;;25.75;24.50;;;;;21.19;51.61;100701.34;2056039;28;46987;-58
2023/07/02 02:45:11;;;;;;;;;27.50;25.75;;;;;21.19;51.50;100698.66;2056048;28;46301;-57
2023/07/02 02:46:12;;;;;;;;;27.25;24.00;;;;;21.18;51.96;100702.31;2063760;28;46312;-58
2023/07/02 02:47:12;;;;;;;;;27.25;25.50;;;;;21.18;51.76;100705.03;2072771;28;46585;-58
2023/07/02 02:48:13;;;;;;;;;27.00;26.50;;;;;21.17;51.68;100698.75;2071764;28;46308;-55
2023/07/02 02:49:13;;;;;;;;;33.50;27.50;;;;;21.18;51.54;100699.63;2059915;28;46847;-59
2023/07/02 02:50:14;;;;;;;;;23.50;22.50;;;;;21.17;51.56;100706.00;2063296;28;45585;-55
2023/07/02 02:51:14;;;;;;;;;23.25;21.75;;;;;21.15;51.57;100699.84;2072026;28;46449;-59
2023/07/02 02:52:15;;;;;;;;;25.50;22.50;;;;;21.14;51.92;100708.91;2072425;28;46614;-57
2023/07/02 02:53:15;;;;;;;;;24.40;21.80;;;;;21.13;51.50;100699.94;2066648;28;47141;-57
2023/07/02 02:54:16;;;;;;;;;27.00;24.50;;;;;21.13;51.93;100701.78;2063148;28;46686;-56
2023/07/02 02:55:16;;;;;;;;;26.25;25.00;;;;;21.11;52.05;100690.22;2067808;28;46610;-57
2023/07/02 02:56:16;;;;;;;;;28.25;24.50;;;;;21.11;51.57;100709.97;2072256;28;46614;-58
2023/07/02 02:57:17;;;;;;;;;23.00;22.75;;;;;21.10;51.77;100702.00;2071918;28;46709;-57
2023/07/02 02:58:17;;;;;;;;;23.50;20.25;;;;;21.11;51.78;100706.41;2072098;28;46337;-58
2023/07/02 02:59:17;;;;;;;;;27.75;26.00;;;;;21.11;51.88;100707.28;2072153;28;46484;-60
2023/07/02 03:00:17;;;;;;;;;28.50;23.75;;;;;21.11;52.09;100712.69;2072284;28;46276;-58
2023/07/02 03:01:18;;;;;;;;;27.75;26.25;;;;;21.09;51.70;100702.97;2067353;28;46307;-57
2023/07/02 03:02:18;;;;;;;;;25.50;23.50;;;;;21.07;52.23;100708.41;2072128;28;46267;-57
2023/07/02 03:03:20;;;;;;;;;22.75;20.25;;;;;21.06;52.33;100706.69;2072191;28;46653;-58
2023/07/02 03:04:23;;;;;;;;;23.40;22.20;;;;;21.05;51.73;100707.66;2072010;28;46951;-58
2023/07/02 03:05:24;;;;;;;;;29.20;25.80;;;;;21.04;51.95;100705.94;2057937;28;45841;-57
2023/07/02 03:06:24;;;;;;;;;29.50;24.50;;;;;21.04;51.67;100696.97;2059132;28;46234;-57
2023/07/02 03:07:24;;;;;;;;;25.00;22.00;;;;;21.05;52.31;100698.69;2054363;28;46401;-58
2023/07/02 03:08:25;;;;;;;;;23.75;23.75;;;;;21.04;52.39;100697.84;2049999;28;46734;-58
2023/07/02 03:09:25;;;;;;;;;26.00;23.75;;;;;21.04;52.51;100700.53;2063760;28;46505;-57
2023/07/02 03:10:25;;;;;;;;;24.50;23.75;;;;;21.05;52.50;100704.09;2063004;28;46417;-56
2023/07/02 03:11:26;;;;;;;;;24.75;22.50;;;;;21.03;51.88;100706.91;2062899;28;45723;-57
2023/07/02 03:12:26;;;;;;;;;21.25;19.00;;;;;21.03;52.10;100712.31;2055223;28;46290;-58
2023/07/02 03:13:27;;;;;;;;;25.25;23.50;;;;;21.01;51.97;100713.38;2063841;28;46619;-58
2023/07/02 03:14:27;;;;;;;;;24.25;22.25;;;;;21.00;52.34;100711.66;2064173;28;46299;-58
2023/07/02 03:15:27;;;;;;;;;18.50;18.00;;;;;20.99;52.52;100713.47;2070671;28;46738;-56
2023/07/02 03:16:28;;;;;;;;;25.00;22.00;;;;;20.98;52.40;100711.75;2071894;28;46221;-59
2023/07/02 03:17:28;;;;;;;;;21.50;21.50;;;;;20.97;52.15;100710.00;2071985;28;45829;-59
2023/07/02 03:18:28;;;;;;;;;29.25;27.25;;;;;20.98;52.16;100710.88;2063161;28;46718;-56
2023/07/02 03:19:29;;;;;;;;;23.00;20.00;;;;;20.96;52.61;100710.09;2063566;28;46208;-57
2023/07/02 03:20:29;;;;;;;;;25.25;25.25;;;;;20.95;52.26;100703.81;2063189;28;47459;-58
2023/07/02 03:21:29;;;;;;;;;22.25;20.25;;;;;20.94;52.67;100706.63;2063753;28;46629;-56
2023/07/02 03:22:30;;;;;;;;;20.50;20.50;;;;;20.92;52.90;100713.97;2063687;28;46717;-58
2023/07/02 03:23:30;;;;;;;;;28.00;24.00;;;;;20.91;52.38;100717.63;2062741;28;46639;-58
2023/07/02 03:24:31;;;;;;;;;19.75;19.00;;;;;20.90;52.88;100715.91;2063735;28;46907;-58
2023/07/02 03:25:31;;;;;;;;;27.25;24.25;;;;;20.88;52.81;100716.00;2063884;28;46521;-57
2023/07/02 03:26:31;;;;;;;;;25.25;20.25;;;;;20.87;52.52;100714.28;2063951;28;46179;-59
2023/07/02 03:27:32;;;;;;;;;28.25;23.75;;;;;20.88;52.49;100717.84;2042668;28;46336;-58
2023/07/02 03:28:34;;;;;;;;;26.50;23.25;;;;;20.85;52.99;100719.75;2040617;28;46013;-58
2023/07/02 03:29:35;;;;;;;;;25.40;23.20;;;;;20.85;52.87;100727.00;2039637;28;46322;-56
2023/07/02 03:30:35;;;;;;;;;20.25;19.75;;;;;20.85;52.58;100732.38;2047074;28;46842;-58
2023/07/02 03:31:35;;;;;;;;;25.50;21.25;;;;;20.85;53.04;100721.59;2044507;28;46518;-56
2023/07/02 03:32:36;;;;;;;;;24.75;22.75;;;;;20.84;52.44;100718.03;2040093;28;46083;-58
2023/07/02 03:33:36;;;;;;;;;25.25;24.25;;;;;20.84;53.14;100717.16;2046369;28;46467;-58
2023/07/02 03:34:36;;;;;;;;;26.00;22.75;;;;;20.83;53.08;100716.31;2047555;28;46317;-58
2023/07/02 03:35:37;;;;;;;;;23.50;20.50;;;;;20.84;52.56;100717.16;2046774;28;46729;-56
2023/07/02 03:36:37;;;;;;;;;24.75;19.75;;;;;20.85;52.71;100727.00;2046577;28;46658;-59
2023/07/02 03:37:38;;;;;;;;;20.00;20.00;;;;;20.82;52.98;100730.72;2046659;28;46406;-59
2023/07/02 03:38:38;;;;;;;;;22.75;21.75;;;;;20.79;52.64;100728.22;2040243;28;46340;-59
2023/07/02 03:39:38;;;;;;;;;25.25;25.25;;;;;20.77;53.13;100727.47;2038775;28;46821;-57
2023/07/02 03:40:39;;;;;;;;;33.50;27.25;;;;;20.75;53.26;100728.53;2038709;28;46446;-57
2023/07/02 03:41:39;;;;;;;;;20.25;20.25;;;;;20.72;52.73;100740.41;2040915;28;46203;-58
2023/07/02 03:42:39;;;;;;;;;24.75;22.25;;;;;20.71;52.88;100741.38;2030700;29;45938;-59
2023/07/02 03:43:40;;;;;;;;;25.50;24.50;;;;;20.71;52.71;100737.75;2033116;28;46320;-57
2023/07/02 03:44:40;;;;;;;;;22.00;22.00;;;;;20.71;52.98;100737.75;2044296;28;46778;-58
2023/07/02 03:45:40;;;;;;;;;27.50;24.50;;;;;20.69;53.13;100735.16;2038762;28;46161;-59
2023/07/02 03:46:41;;;;;;;;;26.25;23.00;;;;;20.71;53.52;100746.75;2039401;28;46554;-57
2023/07/02 03:47:41;;;;;;;;;28.50;25.25;;;;;20.71;53.37;100741.38;2038743;28;46433;-58
2023/07/02 03:48:41;;;;;;;;;28.25;23.75;;;;;20.71;53.04;100745.84;2038576;28;46360;-58
2023/07/02 03:49:42;;;;;;;;;23.25;22.25;;;;;20.71;53.16;100748.56;2038837;28;46900;-57
2023/07/02 03:50:42;;;;;;;;;23.25;22.25;;;;;20.70;53.29;100742.28;2038887;28;46698;-56
2023/07/02 03:51:42;;;;;;;;;20.75;18.25;;;;;20.70;53.05;100746.81;2038283;28;46483;-58
2023/07/02 03:52:43;;;;;;;;;25.25;23.25;;;;;20.71;52.94;100740.47;2039277;28;46325;-57
2023/07/02 03:53:43;;;;;;;;;23.00;23.00;;;;;20.70;53.33;100750.38;2046560;28;46568;-58
2023/07/02 03:54:43;;;;;;;;;28.50;26.00;;;;;20.69;53.46;100754.03;2046326;28;46406;-59
2023/07/02 03:55:44;;;;;;;;;39.50;32.75;;;;;20.66;53.47;100748.00;2046600;28;46488;-60
2023/07/02 03:56:44;;;;;;;;;50.50;38.50;;;;;20.65;53.24;100748.97;2037732;28;46815;-57
2023/07/02 03:57:44;;;;;;;;;58.00;44.75;;;;;20.65;53.14;100751.66;2038788;28;46427;-56
2023/07/02 03:58:45;;;;;;;;;53.50;43.75;;;;;20.65;53.71;100754.34;2039036;28;46111;-58
2023/07/02 03:59:46;;;;;;;;;58.50;45.00;;;;;20.65;53.59;100762.44;2063671;28;46739;-58
2023/07/02 04:00:49;;;;;;;;;57.50;46.75;;;;;20.64;53.14;100763.41;2061953;28;46511;-57
2023/07/02 04:01:51;;;;;;;;;67.60;54.40;;;;;20.65;53.52;100763.31;2064099;28;46467;-58
2023/07/02 04:02:51;;;;;;;;;52.80;44.00;;;;;20.65;53.78;100755.22;2063329;28;46997;-58
2023/07/02 04:03:53;;;;;;;;;46.25;37.25;;;;;20.65;53.41;100760.59;2063704;28;46530;-59
2023/07/02 04:04:53;;;;;;;;;43.40;37.00;;;;;20.65;53.29;100757.03;2054554;28;46372;-58
2023/07/02 04:05:53;;;;;;;;;44.50;36.75;;;;;20.65;53.82;100754.34;2055134;28;47021;-58
2023/07/02 04:06:53;;;;;;;;;46.00;37.50;;;;;20.66;53.34;100753.38;2063126;28;46421;-57
2023/07/02 04:07:54;;;;;;;;;45.00;37.00;;;;;20.67;53.86;100761.38;2068375;28;46480;-59
2023/07/02 04:08:54;;;;;;;;;37.00;34.00;;;;;20.66;53.87;100759.66;2063847;28;46863;-58
2023/07/02 04:09:55;;;;;;;;;37.50;31.75;;;;;20.68;53.33;100764.94;2072160;28;46547;-57
2023/07/02 04:10:55;;;;;;;;;34.25;30.75;;;;;20.68;53.26;100751.44;2072036;28;45435;-58
2023/07/02 04:11:55;;;;;;;;;29.25;28.00;;;;;20.68;53.34;100762.25;2057218;28;44962;-59
2023/07/02 04:12:56;;;;;;;;;28.75;26.00;;;;;20.68;53.28;100760.41;2054518;28;46590;-59
2023/07/02 04:13:56;;;;;;;;;23.00;21.50;;;;;20.67;53.11;100761.38;2063178;28;46295;-59
2023/07/02 04:14:56;;;;;;;;;28.25;25.25;;;;;20.66;53.24;100762.34;2063748;28;46564;-59
2023/07/02 04:15:57;;;;;;;;;24.00;21.75;;;;;20.65;53.66;100757.91;2063648;28;46617;-58
2023/07/02 04:16:57;;;;;;;;;22.75;21.75;;;;;20.68;53.76;100759.53;2063605;28;46232;-57
2023/07/02 04:17:57;;;;;;;;;30.00;27.75;;;;;20.68;53.41;100765.81;2063197;28;46335;-57
2023/07/02 04:18:58;;;;;;;;;25.75;22.25;;;;;20.69;53.38;100758.56;2060681;28;48051;-59
2023/07/02 04:20:00;;;;;;;;;23.00;21.50;;;;;20.69;53.37;100758.56;2063390;28;46905;-59
2023/07/02 04:21:01;;;;;;;;;27.20;23.80;;;;;20.69;53.60;100761.28;2063801;28;46731;-57
2023/07/02 04:22:02;;;;;;;;;21.40;20.40;;;;;20.67;53.71;100750.59;2063682;28;46348;-56
2023/07/02 04:23:03;;;;;;;;;19.25;19.25;;;;;20.68;53.81;100763.09;2055006;28;46120;-54
2023/07/02 04:24:03;;;;;;;;;24.75;19.75;;;;;20.68;53.83;100760.41;2055140;28;46226;-54
2023/07/02 04:25:04;;;;;;;;;24.75;23.25;;;;;20.69;53.58;100767.53;2063486;28;46958;-52
2023/07/02 04:26:04;;;;;;;;;21.50;20.00;;;;;20.69;53.94;100763.97;2058724;28;46338;-54
2023/07/02 04:27:05;;;;;;;;;28.00;25.50;;;;;20.69;53.47;100763.97;2060422;28;46570;-51
2023/07/02 04:28:05;;;;;;;;;25.75;21.75;;;;;20.68;53.20;100768.50;2062301;28;46113;-52
2023/07/02 04:29:06;;;;;;;;;19.00;16.75;;;;;20.69;53.72;100766.66;2062426;28;46867;-51
2023/07/02 04:30:08;;;;;;;;;21.00;19.25;;;;;20.68;53.76;100767.63;2053170;28;46684;-50
2023/07/02 04:31:08;;;;;;;;;23.20;20.00;;;;;20.69;53.43;100772.06;2052517;28;46976;-50
2023/07/02 04:32:08;;;;;;;;;27.25;23.50;;;;;20.69;53.75;100772.94;2062114;28;46498;-52
2023/07/02 04:33:13;;;;;;;;;24.25;23.00;;;;;20.67;53.26;100769.47;2062224;28;46678;-52
2023/07/02 04:34:14;;;;;;;;;23.80;22.40;;;;;20.66;53.51;100773.13;2062576;28;46772;-52
2023/07/02 04:35:14;;;;;;;;;19.00;19.00;;;;;20.64;53.73;100769.66;2053732;28;46670;-50
2023/07/02 04:36:14;;;;;;;;;25.25;24.25;;;;;20.63;54.05;100775.16;2054011;28;45502;-52